createdAt,value
2019-05-25T00:01:09.844Z,15.18
2019-05-25T00:03:38.995Z,15.53
2019-05-25T00:06:08.261Z,15.06
2019-05-25T00:08:37.490Z,14.87
2019-05-25T00:11:06.803Z,14.37
2019-05-25T00:13:36.082Z,13.87
2019-05-25T00:16:05.670Z,13.84
2019-05-25T00:18:34.885Z,13.93
2019-05-25T00:21:04.073Z,13.97
2019-05-25T00:23:33.347Z,13.83
2019-05-25T00:26:02.626Z,13.83
2019-05-25T00:28:31.848Z,13.87
2019-05-25T00:31:01.126Z,13.76
2019-05-25T00:33:30.359Z,13.70
2019-05-25T00:35:59.595Z,13.56
2019-05-25T00:38:28.842Z,13.35
2019-05-25T00:40:58.096Z,13.46
2019-05-25T00:43:27.321Z,13.51
2019-05-25T00:45:56.534Z,13.61
2019-05-25T00:48:25.690Z,13.76
2019-05-25T00:50:54.919Z,13.76
2019-05-25T00:53:24.132Z,13.69
2019-05-25T00:55:53.339Z,13.49
2019-05-25T00:58:22.521Z,13.11
2019-05-25T01:00:51.781Z,13.08
2019-05-25T01:03:21.134Z,13.03
2019-05-25T01:05:50.353Z,12.90
2019-05-25T01:08:19.539Z,13.11
2019-05-25T01:10:48.779Z,13.19
2019-05-25T01:13:17.986Z,13.05
2019-05-25T01:15:47.244Z,13.11
2019-05-25T01:18:16.436Z,13.07
2019-05-25T01:20:45.911Z,13.07
2019-05-25T01:23:15.084Z,13.19
2019-05-25T01:25:44.325Z,13.13
2019-05-25T01:28:13.512Z,13.22
2019-05-25T01:30:42.720Z,13.17
2019-05-25T01:33:11.902Z,13.27
2019-05-25T01:35:41.142Z,13.42
2019-05-25T01:38:10.373Z,13.48
2019-05-25T01:40:39.618Z,13.42
2019-05-25T01:43:08.830Z,13.24
2019-05-25T01:45:38.069Z,13.24
2019-05-25T01:48:07.540Z,13.30
2019-05-25T01:50:37.005Z,13.32
2019-05-25T01:53:06.184Z,13.11
2019-05-25T01:55:35.442Z,12.99
2019-05-25T01:58:04.820Z,13.07
2019-05-25T02:00:33.984Z,12.91
2019-05-25T02:03:03.203Z,12.85
2019-05-25T02:05:32.389Z,13.00
2019-05-25T02:08:01.598Z,13.14
2019-05-25T02:10:30.789Z,13.15
2019-05-25T02:13:00.134Z,13.21
2019-05-25T02:15:29.302Z,13.19
2019-05-25T02:17:58.858Z,13.00
2019-05-25T02:20:28.020Z,12.35
2019-05-25T02:22:57.213Z,12.30
2019-05-25T02:25:26.499Z,12.41
2019-05-25T02:27:55.694Z,12.28
2019-05-25T02:30:28.784Z,12.54
2019-05-25T02:32:57.995Z,12.74
2019-05-25T02:35:28.204Z,12.73
2019-05-25T02:37:58.079Z,12.63
2019-05-25T02:40:27.439Z,12.79
2019-05-25T02:42:56.650Z,12.56
2019-05-25T02:45:25.848Z,12.68
2019-05-25T02:47:55.057Z,12.59
2019-05-25T02:50:24.459Z,12.68
2019-05-25T02:52:53.646Z,12.59
2019-05-25T02:55:33.864Z,12.75
2019-05-25T02:57:53.791Z,12.71
2019-05-25T03:00:34.084Z,12.67
2019-05-25T03:03:05.386Z,12.58
2019-05-25T03:05:34.559Z,12.52
2019-05-25T03:08:04.283Z,12.81
2019-05-25T03:10:34.078Z,12.86
2019-05-25T03:13:04.133Z,12.52
2019-05-25T03:15:33.402Z,12.55
2019-05-25T03:18:02.579Z,12.72
2019-05-25T03:20:31.780Z,12.75
2019-05-25T03:23:01.025Z,12.42
2019-05-25T03:25:49.075Z,12.30
2019-05-25T03:28:08.833Z,12.43
2019-05-25T03:30:38.416Z,12.39
2019-05-25T03:33:07.676Z,12.30
2019-05-25T03:35:36.826Z,12.36
2019-05-25T03:38:05.993Z,12.48
2019-05-25T03:40:35.177Z,12.64
2019-05-25T03:43:04.326Z,12.80
2019-05-25T03:45:33.674Z,12.82
2019-05-25T03:48:02.919Z,12.77
2019-05-25T03:50:32.141Z,12.77
2019-05-25T03:53:01.320Z,12.75
2019-05-25T03:55:30.523Z,12.80
2019-05-25T03:58:00.042Z,12.56
2019-05-25T04:00:36.412Z,12.28
2019-05-25T04:03:06.179Z,12.31
2019-05-25T04:05:35.438Z,12.54
2019-05-25T04:08:04.881Z,12.71
2019-05-25T04:10:34.296Z,12.85
2019-05-25T04:13:03.574Z,12.76
2019-05-25T04:15:32.957Z,12.34
2019-05-25T04:18:02.100Z,12.32
2019-05-25T04:20:31.314Z,12.49
2019-05-25T04:23:00.478Z,13.10
2019-05-25T04:25:29.825Z,13.21
2019-05-25T04:27:59.031Z,13.09
2019-05-25T04:30:28.193Z,13.13
2019-05-25T04:32:57.366Z,12.58
2019-05-25T04:35:26.699Z,12.51
2019-05-25T04:37:55.956Z,12.67
2019-05-25T04:40:25.153Z,12.83
2019-05-25T04:42:54.386Z,12.75
2019-05-25T04:45:23.538Z,12.93
2019-05-25T04:47:52.818Z,12.99
2019-05-25T04:50:22.392Z,12.98
2019-05-25T04:52:51.620Z,12.93
2019-05-25T04:55:20.816Z,13.11
2019-05-25T04:57:50.014Z,13.41
2019-05-25T05:00:19.167Z,13.60
2019-05-25T05:02:48.402Z,13.76
2019-05-25T05:05:17.712Z,13.93
2019-05-25T05:07:47.008Z,14.16
2019-05-25T05:10:16.295Z,14.67
2019-05-25T05:12:45.729Z,14.62
2019-05-25T05:15:15.118Z,14.72
2019-05-25T05:17:44.392Z,14.75
2019-05-25T05:20:13.983Z,14.19
2019-05-25T05:22:43.227Z,14.10
2019-05-25T05:25:12.936Z,13.91
2019-05-25T05:27:42.263Z,14.30
2019-05-25T05:30:11.444Z,14.51
2019-05-25T05:32:40.645Z,14.62
2019-05-25T05:35:10.785Z,14.62
2019-05-25T05:37:41.327Z,14.58
2019-05-25T05:40:10.593Z,14.51
2019-05-25T05:42:41.435Z,14.37
2019-05-25T05:45:10.936Z,14.61
2019-05-25T05:47:41.710Z,14.85
2019-05-25T05:50:11.598Z,14.98
2019-05-25T05:52:40.744Z,15.21
2019-05-25T05:55:11.462Z,15.32
2019-05-25T05:57:40.666Z,15.23
2019-05-25T06:00:10.896Z,15.24
2019-05-25T06:02:40.085Z,15.37
2019-05-25T06:05:09.442Z,15.25
2019-05-25T06:07:38.616Z,15.34
2019-05-25T06:10:08.335Z,15.47
2019-05-25T06:12:37.830Z,15.58
2019-05-25T06:15:08.057Z,15.71
2019-05-25T06:17:37.355Z,15.76
2019-05-25T06:20:07.529Z,15.78
2019-05-25T06:22:36.769Z,15.77
2019-05-25T06:25:07.549Z,15.66
2019-05-25T06:27:36.752Z,15.99
2019-05-25T06:30:06.826Z,16.22
2019-05-25T06:32:36.210Z,16.11
2019-05-25T06:35:06.222Z,16.26
2019-05-25T06:37:35.461Z,16.51
2019-05-25T06:40:05.565Z,17.03
2019-05-25T06:42:34.755Z,16.98
2019-05-25T06:45:04.096Z,17.15
2019-05-25T06:47:33.302Z,17.00
2019-05-25T06:50:02.530Z,16.87
2019-05-25T06:52:31.701Z,16.68
2019-05-25T06:55:00.897Z,16.66
2019-05-25T06:57:42.675Z,16.80
2019-05-25T07:00:01.070Z,17.42
2019-05-25T07:02:30.288Z,17.71
2019-05-25T07:04:59.497Z,17.54
2019-05-25T07:07:30.505Z,17.48
2019-05-25T07:09:59.801Z,17.69
2019-05-25T07:12:29.135Z,17.84
2019-05-25T07:14:58.401Z,17.83
2019-05-25T07:17:27.656Z,17.09
2019-05-25T07:19:56.880Z,18.01
2019-05-25T07:22:26.127Z,18.44
2019-05-25T07:24:55.337Z,18.69
2019-05-25T07:27:24.613Z,18.55
2019-05-25T07:29:53.823Z,18.36
2019-05-25T07:32:23.119Z,18.71
2019-05-25T07:34:52.346Z,19.55
2019-05-25T07:37:21.625Z,18.69
2019-05-25T07:39:50.817Z,19.11
2019-05-25T07:42:20.259Z,18.83
2019-05-25T07:44:49.419Z,19.19
2019-05-25T07:47:18.630Z,19.32
2019-05-25T07:49:47.874Z,19.61
2019-05-25T07:52:17.175Z,19.46
2019-05-25T07:54:46.406Z,19.63
2019-05-25T07:57:15.884Z,20.37
2019-05-25T07:59:45.228Z,19.87
2019-05-25T08:02:14.444Z,20.11
2019-05-25T08:04:43.714Z,20.74
2019-05-25T08:07:13.012Z,19.57
2019-05-25T08:09:42.224Z,19.41
2019-05-25T08:12:11.503Z,20.60
2019-05-25T08:14:40.708Z,20.01
2019-05-25T08:17:09.964Z,20.08
2019-05-25T08:19:39.140Z,20.52
2019-05-25T08:22:08.365Z,20.28
2019-05-25T08:24:37.634Z,21.02
2019-05-25T08:27:06.897Z,21.86
2019-05-25T08:29:36.116Z,21.76
2019-05-25T08:32:05.291Z,22.27
2019-05-25T08:34:34.530Z,21.25
2019-05-25T08:37:03.786Z,21.38
2019-05-25T08:39:33.079Z,22.57
2019-05-25T08:42:02.303Z,22.15
2019-05-25T08:44:31.536Z,21.73
2019-05-25T08:47:00.743Z,22.11
2019-05-25T08:49:29.983Z,21.97
2019-05-25T08:51:59.185Z,22.16
2019-05-25T08:54:28.426Z,21.88
2019-05-25T08:56:57.685Z,22.44
2019-05-25T08:59:26.925Z,21.83
2019-05-25T09:01:56.143Z,22.51
2019-05-25T09:04:25.787Z,22.25
2019-05-25T09:06:55.299Z,22.24
2019-05-25T09:09:24.503Z,22.62
2019-05-25T09:11:53.716Z,22.79
2019-05-25T09:14:22.927Z,22.63
2019-05-25T09:16:52.155Z,23.88
2019-05-25T09:19:21.361Z,23.26
2019-05-25T09:22:02.062Z,23.01
2019-05-25T09:24:21.644Z,22.80
2019-05-25T09:26:51.936Z,22.92
2019-05-25T09:29:21.199Z,23.22
2019-05-25T09:31:50.404Z,24.86
2019-05-25T09:34:19.667Z,23.77
2019-05-25T09:36:49.015Z,22.76
2019-05-25T09:39:18.217Z,22.42
2019-05-25T09:41:47.497Z,23.39
2019-05-25T09:44:16.698Z,23.72
2019-05-25T09:46:45.938Z,22.19
2019-05-25T09:49:15.166Z,24.18
2019-05-25T09:51:44.373Z,25.23
2019-05-25T09:54:13.566Z,24.68
2019-05-25T09:56:42.803Z,22.84
2019-05-25T09:59:20.161Z,23.62
2019-05-25T10:01:42.972Z,22.46
2019-05-25T10:04:12.198Z,23.43
2019-05-25T10:06:41.412Z,22.62
2019-05-25T10:09:10.626Z,22.41
2019-05-25T10:11:39.858Z,22.79
2019-05-25T10:14:09.114Z,21.70
2019-05-25T10:16:38.344Z,21.31
2019-05-25T10:19:07.556Z,21.19
2019-05-25T10:21:36.856Z,21.62
2019-05-25T10:24:06.059Z,22.25
2019-05-25T10:26:35.287Z,21.97
2019-05-25T10:29:04.461Z,23.25
2019-05-25T10:31:33.781Z,23.11
2019-05-25T10:34:03.083Z,22.46
2019-05-25T10:36:32.361Z,22.34
2019-05-25T10:39:01.556Z,23.52
2019-05-25T10:41:30.789Z,21.85
2019-05-25T10:43:59.999Z,22.28
2019-05-25T10:46:29.262Z,21.07
2019-05-25T10:48:58.489Z,22.61
2019-05-25T10:51:27.747Z,23.29
2019-05-25T10:53:57.015Z,22.82
2019-05-25T10:56:26.288Z,23.51
2019-05-25T10:58:55.498Z,24.00
2019-05-25T11:01:24.747Z,23.44
2019-05-25T11:03:54.005Z,24.07
2019-05-25T11:06:23.217Z,23.77
2019-05-25T11:08:52.696Z,23.10
2019-05-25T11:11:22.070Z,23.02
2019-05-25T11:13:51.374Z,23.49
2019-05-25T11:16:20.554Z,23.17
2019-05-25T11:18:49.819Z,23.90
2019-05-25T11:21:19.107Z,23.57
2019-05-25T11:23:48.375Z,22.92
2019-05-25T11:26:17.625Z,23.27
2019-05-25T11:28:46.873Z,23.29
2019-05-25T11:31:16.085Z,23.44
2019-05-25T11:33:45.309Z,23.04
2019-05-25T11:36:14.538Z,22.88
2019-05-25T11:38:43.789Z,23.36
2019-05-25T11:41:13.045Z,24.56
2019-05-25T11:43:42.229Z,24.92
2019-05-25T11:46:11.456Z,24.24
2019-05-25T11:48:40.650Z,24.70
2019-05-25T11:51:09.837Z,25.13
2019-05-25T11:53:39.095Z,25.57
2019-05-25T11:56:08.298Z,25.64
2019-05-25T11:58:46.943Z,25.89
2019-05-25T12:01:08.492Z,25.27
2019-05-25T12:03:37.726Z,26.06
2019-05-25T12:06:07.119Z,23.70
2019-05-25T12:08:36.357Z,22.78
2019-05-25T12:11:05.616Z,24.12
2019-05-25T12:13:34.809Z,25.09
2019-05-25T12:16:04.054Z,26.08
2019-05-25T12:18:33.318Z,26.73
2019-05-25T12:21:02.570Z,26.59
2019-05-25T12:23:31.855Z,26.07
2019-05-25T12:26:01.130Z,26.21
2019-05-25T12:28:30.291Z,25.74
2019-05-25T12:30:59.554Z,25.45
2019-05-25T12:33:28.765Z,26.00
2019-05-25T12:35:58.003Z,24.51
2019-05-25T12:38:27.247Z,25.28
2019-05-25T12:40:56.473Z,24.47
2019-05-25T12:43:25.660Z,24.97
2019-05-25T12:45:54.865Z,24.47
2019-05-25T12:48:24.064Z,24.93
2019-05-25T12:50:53.336Z,25.17
2019-05-25T12:53:22.582Z,25.12
2019-05-25T12:55:51.837Z,23.44
2019-05-25T12:58:23.707Z,24.08
2019-05-25T13:00:56.081Z,23.50
2019-05-25T13:03:28.104Z,24.71
2019-05-25T13:05:54.717Z,23.58
2019-05-25T13:08:22.930Z,24.29
2019-05-25T13:10:51.164Z,24.07
2019-05-25T13:13:19.374Z,24.45
2019-05-25T13:15:47.582Z,24.11
2019-05-25T13:18:16.749Z,23.73
2019-05-25T13:20:45.934Z,23.63
2019-05-25T13:23:15.220Z,23.59
2019-05-25T13:25:44.432Z,23.71
2019-05-25T13:28:13.687Z,23.47
2019-05-25T13:30:42.935Z,22.44
2019-05-25T13:33:12.167Z,22.20
2019-05-25T13:35:41.393Z,22.20
2019-05-25T13:38:10.634Z,22.32
2019-05-25T13:40:39.854Z,22.65
2019-05-25T13:43:08.384Z,22.24
2019-05-25T13:45:36.827Z,22.57
2019-05-25T13:48:05.101Z,22.35
2019-05-25T13:50:33.406Z,21.84
2019-05-25T13:53:01.655Z,21.52
2019-05-25T13:55:29.864Z,21.47
2019-05-25T13:57:58.097Z,21.76
2019-05-25T14:00:27.341Z,21.63
2019-05-25T14:02:56.958Z,21.45
2019-05-25T14:05:26.222Z,21.66
2019-05-25T14:07:55.531Z,21.59
2019-05-25T14:10:24.751Z,22.24
2019-05-25T14:12:53.998Z,22.13
2019-05-25T14:15:23.213Z,22.27
2019-05-25T14:17:52.595Z,21.80
2019-05-25T14:20:22.047Z,21.83
2019-05-25T14:22:51.297Z,22.07
2019-05-25T14:25:20.540Z,21.11
2019-05-25T14:27:49.774Z,20.40
2019-05-25T14:30:19.954Z,20.82
2019-05-25T14:32:49.184Z,20.36
2019-05-25T14:35:18.450Z,20.22
2019-05-25T14:37:47.712Z,20.22
2019-05-25T14:40:17.330Z,20.24
2019-05-25T14:42:46.546Z,20.30
2019-05-25T14:45:15.841Z,20.71
2019-05-25T14:47:45.097Z,21.32
2019-05-25T14:50:14.643Z,21.57
2019-05-25T14:52:43.896Z,20.41
2019-05-25T14:55:13.410Z,20.41
2019-05-25T14:57:42.657Z,20.72
2019-05-25T15:00:13.262Z,20.53
2019-05-25T15:02:42.649Z,20.17
2019-05-25T15:05:12.168Z,20.19
2019-05-25T15:07:41.359Z,19.79
2019-05-25T15:10:10.838Z,19.05
2019-05-25T15:12:40.006Z,18.66
2019-05-25T15:15:08.671Z,17.58
2019-05-25T15:17:38.083Z,17.23
2019-05-25T15:20:07.471Z,17.39
2019-05-25T15:22:36.721Z,17.72
2019-05-25T15:25:06.516Z,17.67
2019-05-25T15:27:35.927Z,17.89
2019-05-25T15:30:07.092Z,18.14
2019-05-25T15:32:36.412Z,18.38
2019-05-25T15:35:06.376Z,18.36
2019-05-25T15:37:35.705Z,17.84
2019-05-25T15:40:05.314Z,18.13
2019-05-25T15:42:34.512Z,17.89
2019-05-25T15:45:03.763Z,18.10
2019-05-25T15:47:33.039Z,16.79
2019-05-25T15:50:02.429Z,15.84
2019-05-25T15:52:31.760Z,16.15
2019-05-25T15:55:01.147Z,16.83
2019-05-25T15:57:30.469Z,17.01
2019-05-25T15:59:59.762Z,16.76
2019-05-25T16:02:36.562Z,17.76
2019-05-25T16:05:00.167Z,17.63
2019-05-25T16:07:31.226Z,18.11
2019-05-25T16:10:00.487Z,17.99
2019-05-25T16:12:29.768Z,18.35
2019-05-25T16:14:58.921Z,18.25
2019-05-25T16:17:28.156Z,18.63
2019-05-25T16:19:57.385Z,18.90
2019-05-25T16:22:26.619Z,18.81
2019-05-25T16:24:55.906Z,18.64
2019-05-25T16:27:25.204Z,17.79
2019-05-25T16:29:54.409Z,17.89
2019-05-25T16:32:23.708Z,17.22
2019-05-25T16:34:52.887Z,17.71
2019-05-25T16:37:22.493Z,17.85
2019-05-25T16:39:52.119Z,18.23
2019-05-25T16:42:21.755Z,17.83
2019-05-25T16:44:51.071Z,17.64
2019-05-25T16:47:20.267Z,17.79
2019-05-25T16:49:49.492Z,18.16
2019-05-25T16:52:19.182Z,18.41
2019-05-25T16:54:48.421Z,18.76
2019-05-25T16:57:17.756Z,18.63
2019-05-25T16:59:46.926Z,18.15
2019-05-25T17:02:16.209Z,18.21
2019-05-25T17:04:45.460Z,18.30
2019-05-25T17:07:14.710Z,18.20
2019-05-25T17:09:43.966Z,17.95
2019-05-25T17:12:13.204Z,17.52
2019-05-25T17:14:42.538Z,18.01
2019-05-25T17:17:12.614Z,17.84
2019-05-25T17:19:41.868Z,17.23
2019-05-25T17:22:11.063Z,16.95
2019-05-25T17:24:40.383Z,17.05
2019-05-25T17:27:09.660Z,16.94
2019-05-25T17:29:38.967Z,16.92
2019-05-25T17:32:08.613Z,17.02
2019-05-25T17:34:38.332Z,16.84
2019-05-25T17:37:07.519Z,16.59
2019-05-25T17:39:36.857Z,16.32
2019-05-25T17:42:06.024Z,16.05
2019-05-25T17:44:35.310Z,16.10
2019-05-25T17:47:04.835Z,16.22
2019-05-25T17:49:34.244Z,16.29
2019-05-25T17:52:03.502Z,16.27
2019-05-25T17:54:32.738Z,16.44
2019-05-25T17:57:01.989Z,16.40
2019-05-25T17:59:31.240Z,16.55
2019-05-25T18:02:00.488Z,16.54
2019-05-25T18:04:29.709Z,16.57
2019-05-25T18:06:58.991Z,16.81
2019-05-25T18:09:28.294Z,16.66
2019-05-25T18:11:57.541Z,16.39
2019-05-25T18:14:26.740Z,16.62
2019-05-25T18:16:55.999Z,16.32
2019-05-25T18:19:25.199Z,16.30
2019-05-25T18:21:54.385Z,16.56
2019-05-25T18:24:23.578Z,16.69
2019-05-25T18:26:52.836Z,16.67
2019-05-25T18:29:23.935Z,16.28
2019-05-25T18:31:53.019Z,16.67
2019-05-25T18:34:22.705Z,17.09
2019-05-25T18:36:52.138Z,16.77
2019-05-25T18:39:21.493Z,16.73
2019-05-25T18:41:50.835Z,17.09
2019-05-25T18:44:20.129Z,17.26
2019-05-25T18:46:49.370Z,17.20
2019-05-25T18:49:18.666Z,16.66
2019-05-25T18:51:47.915Z,16.63
2019-05-25T18:54:17.166Z,16.67
2019-05-25T18:56:46.443Z,16.68
2019-05-25T18:59:15.652Z,16.56
2019-05-25T19:01:44.899Z,16.78
2019-05-25T19:04:14.204Z,17.00
2019-05-25T19:06:43.635Z,16.98
2019-05-25T19:09:12.873Z,16.71
2019-05-25T19:11:42.448Z,16.78
2019-05-25T19:14:11.760Z,15.63
2019-05-25T19:16:41.007Z,16.33
2019-05-25T19:19:10.284Z,16.80
2019-05-25T19:21:39.512Z,16.81
2019-05-25T19:24:08.777Z,16.42
2019-05-25T19:26:37.967Z,16.23
2019-05-25T19:29:07.193Z,15.79
2019-05-25T19:31:36.446Z,16.29
2019-05-25T19:34:05.608Z,16.42
2019-05-25T19:36:34.883Z,16.20
2019-05-25T19:39:05.855Z,16.30
2019-05-25T19:41:35.119Z,16.30
2019-05-25T19:44:04.449Z,16.10
2019-05-25T19:46:33.793Z,15.78
2019-05-25T19:49:02.093Z,14.68
2019-05-25T19:51:31.283Z,14.68
2019-05-25T19:54:00.612Z,15.15
2019-05-25T19:56:29.862Z,14.40
2019-05-25T19:58:59.092Z,14.26
2019-05-25T20:01:28.338Z,14.34
2019-05-25T20:03:57.716Z,14.21
2019-05-25T20:06:27.234Z,14.24
2019-05-25T20:08:56.479Z,14.71
2019-05-25T20:11:25.812Z,15.12
2019-05-25T20:13:55.028Z,15.25
2019-05-25T20:16:25.215Z,14.92
2019-05-25T20:18:54.502Z,14.92
2019-05-25T20:21:23.746Z,15.06
2019-05-25T20:23:53.070Z,15.14
2019-05-25T20:26:22.349Z,14.95
2019-05-25T20:28:51.668Z,15.00
2019-05-25T20:31:21.053Z,14.91
2019-05-25T20:33:50.486Z,14.28
2019-05-25T20:36:19.919Z,14.83
2019-05-25T20:38:49.191Z,14.85
2019-05-25T20:41:18.451Z,14.77
2019-05-25T20:43:47.607Z,14.56
2019-05-25T20:46:16.885Z,14.85
2019-05-25T20:48:46.145Z,14.80
2019-05-25T20:51:15.402Z,14.94
2019-05-25T20:53:44.655Z,13.90
2019-05-25T20:56:13.948Z,13.28
2019-05-25T20:58:43.178Z,12.62
2019-05-25T21:01:12.602Z,12.34
2019-05-25T21:03:41.843Z,12.36
2019-05-25T21:06:11.104Z,12.54
2019-05-25T21:08:40.653Z,12.62
2019-05-25T21:11:09.995Z,12.76
2019-05-25T21:13:39.207Z,13.01
2019-05-25T21:16:08.452Z,12.94
2019-05-25T21:18:37.706Z,12.75
2019-05-25T21:21:06.950Z,13.05
2019-05-25T21:23:36.163Z,13.79
2019-05-25T21:26:05.413Z,13.08
2019-05-25T21:28:34.635Z,13.32
2019-05-25T21:31:03.849Z,13.12
2019-05-25T21:33:33.095Z,12.91
2019-05-25T21:36:08.179Z,12.30
2019-05-25T21:38:33.354Z,12.73
2019-05-25T21:41:02.601Z,12.05
2019-05-25T21:43:31.863Z,12.26
2019-05-25T21:46:01.120Z,13.22
2019-05-25T21:48:30.409Z,13.45
2019-05-25T21:50:59.664Z,13.67
2019-05-25T21:53:28.963Z,13.47
2019-05-25T21:55:58.201Z,11.88
2019-05-25T21:58:27.520Z,11.94
2019-05-25T22:00:56.962Z,12.80
2019-05-25T22:03:26.568Z,13.35
2019-05-25T22:05:55.855Z,13.62
2019-05-25T22:08:25.043Z,12.53
2019-05-25T22:10:54.226Z,11.86
2019-05-25T22:13:28.430Z,12.21
2019-05-25T22:15:54.675Z,11.81
2019-05-25T22:18:23.943Z,12.85
2019-05-25T22:20:53.169Z,11.37
2019-05-25T22:23:22.528Z,11.60
2019-05-25T22:25:51.747Z,12.75
2019-05-25T22:28:20.948Z,12.37
2019-05-25T22:30:50.163Z,12.10
2019-05-25T22:33:19.844Z,12.14
2019-05-25T22:35:49.344Z,12.28
2019-05-25T22:38:18.629Z,12.93
2019-05-25T22:40:47.880Z,13.00
2019-05-25T22:43:17.060Z,12.16
2019-05-25T22:45:46.284Z,12.80
2019-05-25T22:48:15.504Z,11.82
2019-05-25T22:50:44.794Z,12.20
2019-05-25T22:53:14.026Z,12.01
2019-05-25T22:55:43.297Z,11.38
2019-05-25T22:58:12.540Z,11.80
2019-05-25T23:00:41.761Z,11.31
2019-05-25T23:03:11.024Z,11.79
2019-05-25T23:05:40.252Z,12.08
2019-05-25T23:08:09.470Z,12.60
2019-05-25T23:10:38.748Z,12.91
2019-05-25T23:13:07.962Z,12.63
2019-05-25T23:15:37.160Z,12.62
2019-05-25T23:18:06.396Z,12.38
2019-05-25T23:20:36.644Z,12.08
2019-05-25T23:23:06.066Z,12.77
2019-05-25T23:25:35.263Z,12.60
2019-05-25T23:28:04.473Z,12.67
2019-05-25T23:30:33.649Z,11.26
2019-05-25T23:33:02.924Z,11.35
2019-05-25T23:35:32.133Z,11.45
2019-05-25T23:38:03.717Z,11.57
2019-05-25T23:40:32.288Z,11.91
2019-05-25T23:43:01.554Z,11.52
2019-05-25T23:45:30.703Z,11.87
2019-05-25T23:47:59.889Z,12.09
2019-05-25T23:50:29.078Z,11.69
2019-05-25T23:52:58.324Z,11.53
2019-05-25T23:55:27.579Z,11.76
2019-05-25T23:57:56.800Z,11.73
